sensor_id;sensor_type;location;lat;lon;timestamp;temperature;humidity
17938;DHT22;16051;53.024;8.630;2023-04-03T00:02:11;5.70;90.70
17938;DHT22;16051;53.024;8.630;2023-04-03T00:06:13;5.60;91.20
17938;DHT22;16051;53.024;8.630;2023-04-03T00:10:17;5.50;91.50
17938;DHT22;16051;53.024;8.630;2023-04-03T00:14:28;5.50;91.80
17938;DHT22;16051;53.024;8.630;2023-04-03T00:18:30;5.40;92.20
17938;DHT22;16051;53.024;8.630;2023-04-03T00:22:33;5.30;92.70
17938;DHT22;16051;53.024;8.630;2023-04-03T00:26:36;5.30;93.10
17938;DHT22;16051;53.024;8.630;2023-04-03T00:30:38;5.20;93.50
17938;DHT22;16051;53.024;8.630;2023-04-03T00:34:40;5.20;93.90
17938;DHT22;16051;53.024;8.630;2023-04-03T00:38:42;5.10;94.30
17938;DHT22;16051;53.024;8.630;2023-04-03T00:42:47;5.10;94.50
17938;DHT22;16051;53.024;8.630;2023-04-03T00:46:52;5.00;94.80
17938;DHT22;16051;53.024;8.630;2023-04-03T00:50:55;4.90;95.20
17938;DHT22;16051;53.024;8.630;2023-04-03T00:55:00;4.90;95.60
17938;DHT22;16051;53.024;8.630;2023-04-03T00:59:13;4.80;95.80
17938;DHT22;16051;53.024;8.630;2023-04-03T01:03:18;4.70;96.10
17938;DHT22;16051;53.024;8.630;2023-04-03T01:07:23;4.60;96.30
17938;DHT22;16051;53.024;8.630;2023-04-03T01:11:28;4.60;96.50
17938;DHT22;16051;53.024;8.630;2023-04-03T01:15:33;4.50;96.70
17938;DHT22;16051;53.024;8.630;2023-04-03T01:19:38;4.40;96.90
17938;DHT22;16051;53.024;8.630;2023-04-03T01:24:04;4.40;97.60
17938;DHT22;16051;53.024;8.630;2023-04-03T01:28:17;4.30;97.60
17938;DHT22;16051;53.024;8.630;2023-04-03T01:32:22;4.20;97.90
17938;DHT22;16051;53.024;8.630;2023-04-03T01:36:27;4.20;98.20
17938;DHT22;16051;53.024;8.630;2023-04-03T01:40:30;4.10;98.20
17938;DHT22;16051;53.024;8.630;2023-04-03T01:44:33;4.10;98.50
17938;DHT22;16051;53.024;8.630;2023-04-03T01:48:39;4.00;98.80
17938;DHT22;16051;53.024;8.630;2023-04-03T01:52:41;4.00;99.10
17938;DHT22;16051;53.024;8.630;2023-04-03T01:56:43;3.90;99.40
17938;DHT22;16051;53.024;8.630;2023-04-03T02:00:45;3.90;99.60
17938;DHT22;16051;53.024;8.630;2023-04-03T02:04:51;3.80;99.80
17938;DHT22;16051;53.024;8.630;2023-04-03T02:08:55;3.70;99.90
17938;DHT22;16051;53.024;8.630;2023-04-03T02:12:57;3.70;99.90
17938;DHT22;16051;53.024;8.630;2023-04-03T02:17:00;3.60;99.90
17938;DHT22;16051;53.024;8.630;2023-04-03T02:21:06;3.60;99.90
17938;DHT22;16051;53.024;8.630;2023-04-03T02:25:11;3.50;99.90
17938;DHT22;16051;53.024;8.630;2023-04-03T02:29:13;3.50;99.90
17938;DHT22;16051;53.024;8.630;2023-04-03T02:33:15;3.40;99.90
17938;DHT22;16051;53.024;8.630;2023-04-03T02:37:20;3.40;99.90
17938;DHT22;16051;53.024;8.630;2023-04-03T02:41:22;3.30;99.90
17938;DHT22;16051;53.024;8.630;2023-04-03T02:45:26;3.30;99.90
17938;DHT22;16051;53.024;8.630;2023-04-03T02:49:28;3.20;99.90
17938;DHT22;16051;53.024;8.630;2023-04-03T02:53:36;3.20;99.90
17938;DHT22;16051;53.024;8.630;2023-04-03T02:57:38;3.10;99.90
17938;DHT22;16051;53.024;8.630;2023-04-03T03:01:40;3.10;99.90
17938;DHT22;16051;53.024;8.630;2023-04-03T03:05:43;3.00;99.90
17938;DHT22;16051;53.024;8.630;2023-04-03T03:09:46;3.00;99.90
17938;DHT22;16051;53.024;8.630;2023-04-03T03:13:48;2.90;99.90
17938;DHT22;16051;53.024;8.630;2023-04-03T03:17:51;2.90;99.90
17938;DHT22;16051;53.024;8.630;2023-04-03T03:21:53;2.80;99.90
17938;DHT22;16051;53.024;8.630;2023-04-03T03:26:19;2.80;99.90
17938;DHT22;16051;53.024;8.630;2023-04-03T03:30:21;2.80;99.90
17938;DHT22;16051;53.024;8.630;2023-04-03T03:34:23;2.70;99.90
17938;DHT22;16051;53.024;8.630;2023-04-03T03:38:26;2.60;99.90
17938;DHT22;16051;53.024;8.630;2023-04-03T03:42:30;2.60;99.90
17938;DHT22;16051;53.024;8.630;2023-04-03T03:46:33;2.60;99.90
17938;DHT22;16051;53.024;8.630;2023-04-03T03:50:43;2.60;99.90
17938;DHT22;16051;53.024;8.630;2023-04-03T03:54:45;2.50;99.90
17938;DHT22;16051;53.024;8.630;2023-04-03T03:58:59;2.50;99.90
17938;DHT22;16051;53.024;8.630;2023-04-03T04:03:01;2.40;99.90
17938;DHT22;16051;53.024;8.630;2023-04-03T04:07:03;2.40;99.90
17938;DHT22;16051;53.024;8.630;2023-04-03T04:11:24;2.30;99.90
17938;DHT22;16051;53.024;8.630;2023-04-03T04:15:29;2.20;99.90
17938;DHT22;16051;53.024;8.630;2023-04-03T04:19:31;2.20;99.90
17938;DHT22;16051;53.024;8.630;2023-04-03T04:23:38;2.20;99.90
17938;DHT22;16051;53.024;8.630;2023-04-03T04:27:40;2.20;99.90
17938;DHT22;16051;53.024;8.630;2023-04-03T04:31:44;2.10;99.90
17938;DHT22;16051;53.024;8.630;2023-04-03T04:36:02;2.10;99.90
17938;DHT22;16051;53.024;8.630;2023-04-03T04:40:05;2.10;99.90
17938;DHT22;16051;53.024;8.630;2023-04-03T04:44:08;2.00;99.90
17938;DHT22;16051;53.024;8.630;2023-04-03T04:48:12;2.00;99.90
17938;DHT22;16051;53.024;8.630;2023-04-03T04:52:34;2.00;99.90
17938;DHT22;16051;53.024;8.630;2023-04-03T04:56:46;1.90;99.90
17938;DHT22;16051;53.024;8.630;2023-04-03T05:00:48;1.90;99.90
17938;DHT22;16051;53.024;8.630;2023-04-03T05:04:52;1.90;99.90
17938;DHT22;16051;53.024;8.630;2023-04-03T05:09:05;1.90;99.90
17938;DHT22;16051;53.024;8.630;2023-04-03T05:13:07;1.90;99.90
17938;DHT22;16051;53.024;8.630;2023-04-03T05:17:09;1.80;99.90
17938;DHT22;16051;53.024;8.630;2023-04-03T05:21:12;1.80;99.90
17938;DHT22;16051;53.024;8.630;2023-04-03T05:25:23;1.80;99.90
17938;DHT22;16051;53.024;8.630;2023-04-03T05:29:25;1.80;99.90
17938;DHT22;16051;53.024;8.630;2023-04-03T05:33:27;1.80;99.90
17938;DHT22;16051;53.024;8.630;2023-04-03T05:37:30;1.80;99.90
17938;DHT22;16051;53.024;8.630;2023-04-03T05:41:33;1.80;99.90
17938;DHT22;16051;53.024;8.630;2023-04-03T05:45:35;1.80;99.90
17938;DHT22;16051;53.024;8.630;2023-04-03T05:49:37;1.80;99.90
17938;DHT22;16051;53.024;8.630;2023-04-03T05:53:44;1.90;99.90
17938;DHT22;16051;53.024;8.630;2023-04-03T05:57:55;1.90;99.90
17938;DHT22;16051;53.024;8.630;2023-04-03T06:01:57;1.90;99.90
17938;DHT22;16051;53.024;8.630;2023-04-03T06:06:00;1.90;99.90
17938;DHT22;16051;53.024;8.630;2023-04-03T06:10:07;2.00;99.90
17938;DHT22;16051;53.024;8.630;2023-04-03T06:14:10;2.10;99.90
17938;DHT22;16051;53.024;8.630;2023-04-03T06:18:14;2.10;99.90
17938;DHT22;16051;53.024;8.630;2023-04-03T06:22:16;2.20;99.90
17938;DHT22;16051;53.024;8.630;2023-04-03T06:26:19;2.30;99.90
17938;DHT22;16051;53.024;8.630;2023-04-03T06:30:22;2.40;99.90
17938;DHT22;16051;53.024;8.630;2023-04-03T06:34:25;2.60;99.90
17938;DHT22;16051;53.024;8.630;2023-04-03T06:38:46;2.70;99.90
17938;DHT22;16051;53.024;8.630;2023-04-03T06:42:58;2.90;99.90
17938;DHT22;16051;53.024;8.630;2023-04-03T06:47:14;4.70;99.90
17938;DHT22;16051;53.024;8.630;2023-04-03T06:51:30;4.70;99.90
17938;DHT22;16051;53.024;8.630;2023-04-03T06:55:40;3.90;99.90
17938;DHT22;16051;53.024;8.630;2023-04-03T06:59:55;3.80;99.90
17938;DHT22;16051;53.024;8.630;2023-04-03T07:03:57;4.00;99.90
17938;DHT22;16051;53.024;8.630;2023-04-03T07:07:59;4.30;99.90
17938;DHT22;16051;53.024;8.630;2023-04-03T07:12:01;4.80;99.90
17938;DHT22;16051;53.024;8.630;2023-04-03T07:20:38;5.40;99.90
17938;DHT22;16051;53.024;8.630;2023-04-03T07:24:41;5.80;99.90
17938;DHT22;16051;53.024;8.630;2023-04-03T07:28:43;6.30;99.90
17938;DHT22;16051;53.024;8.630;2023-04-03T07:32:49;6.70;99.90
17938;DHT22;16051;53.024;8.630;2023-04-03T07:36:52;7.10;99.90
17938;DHT22;16051;53.024;8.630;2023-04-03T07:40:55;7.60;99.90
17938;DHT22;16051;53.024;8.630;2023-04-03T07:49:12;8.10;99.90
17938;DHT22;16051;53.024;8.630;2023-04-03T07:53:15;8.40;99.90
17938;DHT22;16051;53.024;8.630;2023-04-03T07:57:17;8.60;99.90
17938;DHT22;16051;53.024;8.630;2023-04-03T08:01:19;8.80;99.90
17938;DHT22;16051;53.024;8.630;2023-04-03T08:05:23;8.90;99.90
17938;DHT22;16051;53.024;8.630;2023-04-03T08:09:36;9.00;99.90
17938;DHT22;16051;53.024;8.630;2023-04-03T08:13:39;9.10;99.90
17938;DHT22;16051;53.024;8.630;2023-04-03T08:17:42;9.20;99.90
17938;DHT22;16051;53.024;8.630;2023-04-03T08:21:45;9.50;99.90
17938;DHT22;16051;53.024;8.630;2023-04-03T08:25:49;9.60;99.90
17938;DHT22;16051;53.024;8.630;2023-04-03T08:29:51;9.70;99.90
17938;DHT22;16051;53.024;8.630;2023-04-03T08:33:54;9.70;99.90
17938;DHT22;16051;53.024;8.630;2023-04-03T08:37:59;9.80;99.90
17938;DHT22;16051;53.024;8.630;2023-04-03T08:42:05;9.80;99.60
17938;DHT22;16051;53.024;8.630;2023-04-03T08:46:17;9.80;98.90
17938;DHT22;16051;53.024;8.630;2023-04-03T08:50:28;9.80;98.70
17938;DHT22;16051;53.024;8.630;2023-04-03T08:54:40;9.50;97.60
17938;DHT22;16051;53.024;8.630;2023-04-03T08:58:56;9.60;97.30
17938;DHT22;16051;53.024;8.630;2023-04-03T09:03:12;9.70;96.70
17938;DHT22;16051;53.024;8.630;2023-04-03T09:07:19;9.80;95.50
17938;DHT22;16051;53.024;8.630;2023-04-03T09:11:52;9.90;94.90
17938;DHT22;16051;53.024;8.630;2023-04-03T09:15:59;10.20;95.60
17938;DHT22;16051;53.024;8.630;2023-04-03T09:20:13;10.30;95.30
17938;DHT22;16051;53.024;8.630;2023-04-03T09:24:31;10.50;93.70
17938;DHT22;16051;53.024;8.630;2023-04-03T09:28:48;10.90;94.10
17938;DHT22;16051;53.024;8.630;2023-04-03T09:32:52;11.30;93.00
17938;DHT22;16051;53.024;8.630;2023-04-03T09:37:09;11.60;92.70
17938;DHT22;16051;53.024;8.630;2023-04-03T09:41:17;12.30;94.30
17938;DHT22;16051;53.024;8.630;2023-04-03T09:45:25;13.20;96.60
17938;DHT22;16051;53.024;8.630;2023-04-03T09:49:28;13.70;95.60
17938;DHT22;16051;53.024;8.630;2023-04-03T09:53:37;14.30;96.10
17938;DHT22;16051;53.024;8.630;2023-04-03T09:57:40;14.50;92.50
17938;DHT22;16051;53.024;8.630;2023-04-03T10:01:57;14.00;85.30
17938;DHT22;16051;53.024;8.630;2023-04-03T10:06:03;14.20;76.20
17938;DHT22;16051;53.024;8.630;2023-04-03T10:10:25;14.30;72.90
17938;DHT22;16051;53.024;8.630;2023-04-03T10:14:30;14.90;67.60
17938;DHT22;16051;53.024;8.630;2023-04-03T10:18:40;15.00;64.80
17938;DHT22;16051;53.024;8.630;2023-04-03T10:22:54;15.50;63.90
17938;DHT22;16051;53.024;8.630;2023-04-03T10:27:07;16.00;63.40
17938;DHT22;16051;53.024;8.630;2023-04-03T10:31:18;16.50;62.80
17938;DHT22;16051;53.024;8.630;2023-04-03T10:35:38;17.00;59.50
17938;DHT22;16051;53.024;8.630;2023-04-03T10:40:02;17.60;57.00
17938;DHT22;16051;53.024;8.630;2023-04-03T10:44:20;18.10;54.10
17938;DHT22;16051;53.024;8.630;2023-04-03T10:48:55;18.80;53.20
17938;DHT22;16051;53.024;8.630;2023-04-03T10:53:14;19.00;51.80
17938;DHT22;16051;53.024;8.630;2023-04-03T10:57:24;19.50;49.10
17938;DHT22;16051;53.024;8.630;2023-04-03T11:01:31;19.80;48.40
17938;DHT22;16051;53.024;8.630;2023-04-03T11:05:40;19.20;46.90
17938;DHT22;16051;53.024;8.630;2023-04-03T11:10:00;19.10;46.30
17938;DHT22;16051;53.024;8.630;2023-04-03T11:14:10;19.10;47.80
17938;DHT22;16051;53.024;8.630;2023-04-03T11:18:28;19.70;46.20
17938;DHT22;16051;53.024;8.630;2023-04-03T11:22:40;20.00;45.40
17938;DHT22;16051;53.024;8.630;2023-04-03T11:26:45;20.20;44.10
17938;DHT22;16051;53.024;8.630;2023-04-03T11:30:50;20.30;43.30
17938;DHT22;16051;53.024;8.630;2023-04-03T11:35:05;20.60;43.50
17938;DHT22;16051;53.024;8.630;2023-04-03T11:39:18;19.80;42.00
17938;DHT22;16051;53.024;8.630;2023-04-03T11:43:56;19.50;43.40
17938;DHT22;16051;53.024;8.630;2023-04-03T11:48:03;20.10;40.90
17938;DHT22;16051;53.024;8.630;2023-04-03T11:52:09;20.10;42.60
17938;DHT22;16051;53.024;8.630;2023-04-03T11:56:31;20.70;42.70
17938;DHT22;16051;53.024;8.630;2023-04-03T12:00:57;21.10;42.40
17938;DHT22;16051;53.024;8.630;2023-04-03T12:05:26;21.00;41.30
17938;DHT22;16051;53.024;8.630;2023-04-03T12:14:12;21.30;41.80
17938;DHT22;16051;53.024;8.630;2023-04-03T12:18:58;21.80;41.10
17938;DHT22;16051;53.024;8.630;2023-04-03T12:23:26;22.00;40.70
17938;DHT22;16051;53.024;8.630;2023-04-03T12:27:43;21.70;39.70
17938;DHT22;16051;53.024;8.630;2023-04-03T12:31:52;20.70;39.50
17938;DHT22;16051;53.024;8.630;2023-04-03T12:36:19;20.40;40.20
17938;DHT22;16051;53.024;8.630;2023-04-03T12:40:32;21.10;39.40
17938;DHT22;16051;53.024;8.630;2023-04-03T12:44:50;21.50;38.30
17938;DHT22;16051;53.024;8.630;2023-04-03T12:49:02;21.70;38.80
17938;DHT22;16051;53.024;8.630;2023-04-03T12:53:22;20.30;39.40
17938;DHT22;16051;53.024;8.630;2023-04-03T12:57:36;23.40;39.50
17938;DHT22;16051;53.024;8.630;2023-04-03T13:01:38;21.40;38.20
17938;DHT22;16051;53.024;8.630;2023-04-03T13:05:44;20.70;39.20
17938;DHT22;16051;53.024;8.630;2023-04-03T13:10:00;21.30;39.20
17938;DHT22;16051;53.024;8.630;2023-04-03T13:14:14;22.10;39.70
17938;DHT22;16051;53.024;8.630;2023-04-03T13:18:23;22.50;38.40
17938;DHT22;16051;53.024;8.630;2023-04-03T13:22:29;21.10;38.20
17938;DHT22;16051;53.024;8.630;2023-04-03T13:26:41;19.50;38.70
17938;DHT22;16051;53.024;8.630;2023-04-03T13:31:05;18.80;39.80
17938;DHT22;16051;53.024;8.630;2023-04-03T13:35:26;18.70;40.60
17938;DHT22;16051;53.024;8.630;2023-04-03T13:39:31;20.20;40.40
17938;DHT22;16051;53.024;8.630;2023-04-03T13:43:37;20.70;40.40
17938;DHT22;16051;53.024;8.630;2023-04-03T13:47:41;21.10;39.70
17938;DHT22;16051;53.024;8.630;2023-04-03T13:51:45;20.80;39.80
17938;DHT22;16051;53.024;8.630;2023-04-03T13:56:00;19.40;40.30
17938;DHT22;16051;53.024;8.630;2023-04-03T14:00:36;19.60;40.50
17938;DHT22;16051;53.024;8.630;2023-04-03T14:04:53;20.50;40.00
17938;DHT22;16051;53.024;8.630;2023-04-03T14:09:00;20.90;38.80
17938;DHT22;16051;53.024;8.630;2023-04-03T14:13:11;21.10;38.30
17938;DHT22;16051;53.024;8.630;2023-04-03T14:17:18;20.80;38.50
17938;DHT22;16051;53.024;8.630;2023-04-03T14:21:23;21.20;37.60
17938;DHT22;16051;53.024;8.630;2023-04-03T14:25:26;21.60;37.80
17938;DHT22;16051;53.024;8.630;2023-04-03T14:29:37;21.60;38.40
17938;DHT22;16051;53.024;8.630;2023-04-03T14:33:40;22.00;37.90
17938;DHT22;16051;53.024;8.630;2023-04-03T14:37:43;21.30;38.10
17938;DHT22;16051;53.024;8.630;2023-04-03T14:41:46;22.10;38.60
17938;DHT22;16051;53.024;8.630;2023-04-03T14:45:55;21.50;37.80
17938;DHT22;16051;53.024;8.630;2023-04-03T14:50:00;20.70;38.80
17938;DHT22;16051;53.024;8.630;2023-04-03T14:54:03;21.00;39.20
17938;DHT22;16051;53.024;8.630;2023-04-03T14:58:15;21.80;38.40
17938;DHT22;16051;53.024;8.630;2023-04-03T15:02:26;22.50;38.00
17938;DHT22;16051;53.024;8.630;2023-04-03T15:06:33;22.70;37.80
17938;DHT22;16051;53.024;8.630;2023-04-03T15:10:35;22.10;37.40
17938;DHT22;16051;53.024;8.630;2023-04-03T15:14:49;22.20;37.90
17938;DHT22;16051;53.024;8.630;2023-04-03T15:18:51;21.20;38.70
17938;DHT22;16051;53.024;8.630;2023-04-03T15:22:55;20.30;39.30
17938;DHT22;16051;53.024;8.630;2023-04-03T15:27:05;20.60;39.90
17938;DHT22;16051;53.024;8.630;2023-04-03T15:31:08;28.40;33.90
17938;DHT22;16051;53.024;8.630;2023-04-03T15:35:10;30.60;30.90
17938;DHT22;16051;53.024;8.630;2023-04-03T15:39:14;31.30;29.90
17938;DHT22;16051;53.024;8.630;2023-04-03T15:43:17;31.90;29.50
17938;DHT22;16051;53.024;8.630;2023-04-03T15:47:19;32.30;29.00
17938;DHT22;16051;53.024;8.630;2023-04-03T15:51:21;30.40;29.00
17938;DHT22;16051;53.024;8.630;2023-04-03T15:55:29;28.30;30.30
17938;DHT22;16051;53.024;8.630;2023-04-03T15:59:32;25.00;33.30
17938;DHT22;16051;53.024;8.630;2023-04-03T16:03:34;26.30;32.70
17938;DHT22;16051;53.024;8.630;2023-04-03T16:07:37;25.60;33.30
17938;DHT22;16051;53.024;8.630;2023-04-03T16:11:41;25.20;33.80
17938;DHT22;16051;53.024;8.630;2023-04-03T16:15:44;25.10;34.40
17938;DHT22;16051;53.024;8.630;2023-04-03T16:19:52;25.00;34.50
17938;DHT22;16051;53.024;8.630;2023-04-03T16:23:57;25.00;34.60
17938;DHT22;16051;53.024;8.630;2023-04-03T16:28:07;25.10;34.30
17938;DHT22;16051;53.024;8.630;2023-04-03T16:32:09;23.50;35.10
17938;DHT22;16051;53.024;8.630;2023-04-03T16:36:11;25.10;34.40
17938;DHT22;16051;53.024;8.630;2023-04-03T16:40:19;25.80;33.30
17938;DHT22;16051;53.024;8.630;2023-04-03T16:44:36;25.70;32.80
17938;DHT22;16051;53.024;8.630;2023-04-03T16:48:40;25.30;33.00
17938;DHT22;16051;53.024;8.630;2023-04-03T16:52:42;24.50;33.20
17938;DHT22;16051;53.024;8.630;2023-04-03T16:56:46;23.40;33.90
17938;DHT22;16051;53.024;8.630;2023-04-03T17:00:54;21.80;35.50
17938;DHT22;16051;53.024;8.630;2023-04-03T17:04:56;20.90;36.10
17938;DHT22;16051;53.024;8.630;2023-04-03T17:08:58;20.40;36.50
17938;DHT22;16051;53.024;8.630;2023-04-03T17:13:16;19.90;36.90
17938;DHT22;16051;53.024;8.630;2023-04-03T17:17:48;19.10;37.80
17938;DHT22;16051;53.024;8.630;2023-04-03T17:21:52;18.50;38.20
17938;DHT22;16051;53.024;8.630;2023-04-03T17:25:54;18.00;38.80
17938;DHT22;16051;53.024;8.630;2023-04-03T17:30:00;17.50;39.40
17938;DHT22;16051;53.024;8.630;2023-04-03T17:34:04;17.10;39.80
17938;DHT22;16051;53.024;8.630;2023-04-03T17:38:06;16.70;40.10
17938;DHT22;16051;53.024;8.630;2023-04-03T17:42:08;16.40;40.60
17938;DHT22;16051;53.024;8.630;2023-04-03T17:46:10;16.00;41.10
17938;DHT22;16051;53.024;8.630;2023-04-03T17:50:14;15.80;41.60
17938;DHT22;16051;53.024;8.630;2023-04-03T17:54:16;15.40;41.80
17938;DHT22;16051;53.024;8.630;2023-04-03T18:03:12;14.80;42.80
17938;DHT22;16051;53.024;8.630;2023-04-03T18:07:21;14.40;43.20
17938;DHT22;16051;53.024;8.630;2023-04-03T18:11:26;14.30;43.70
17938;DHT22;16051;53.024;8.630;2023-04-03T18:15:30;14.00;44.10
17938;DHT22;16051;53.024;8.630;2023-04-03T18:19:38;13.80;44.50
17938;DHT22;16051;53.024;8.630;2023-04-03T18:23:44;13.60;44.90
17938;DHT22;16051;53.024;8.630;2023-04-03T18:27:49;13.40;45.30
17938;DHT22;16051;53.024;8.630;2023-04-03T18:32:00;13.10;45.60
17938;DHT22;16051;53.024;8.630;2023-04-03T18:36:16;13.00;46.10
17938;DHT22;16051;53.024;8.630;2023-04-03T18:40:19;12.90;46.50
17938;DHT22;16051;53.024;8.630;2023-04-03T18:44:23;12.60;46.70
17938;DHT22;16051;53.024;8.630;2023-04-03T18:48:27;12.40;46.90
17938;DHT22;16051;53.024;8.630;2023-04-03T18:52:29;12.30;47.40
17938;DHT22;16051;53.024;8.630;2023-04-03T18:56:37;12.10;47.60
17938;DHT22;16051;53.024;8.630;2023-04-03T19:00:41;12.00;47.90
17938;DHT22;16051;53.024;8.630;2023-04-03T19:04:44;11.80;48.70
17938;DHT22;16051;53.024;8.630;2023-04-03T19:08:49;11.60;48.60
17938;DHT22;16051;53.024;8.630;2023-04-03T19:12:54;11.50;48.90
17938;DHT22;16051;53.024;8.630;2023-04-03T19:16:56;11.40;49.40
17938;DHT22;16051;53.024;8.630;2023-04-03T19:20:58;11.20;49.80
17938;DHT22;16051;53.024;8.630;2023-04-03T19:25:07;11.10;50.80
17938;DHT22;16051;53.024;8.630;2023-04-03T19:29:38;10.90;50.60
17938;DHT22;16051;53.024;8.630;2023-04-03T19:33:40;10.80;51.00
17938;DHT22;16051;53.024;8.630;2023-04-03T19:37:43;10.70;51.50
17938;DHT22;16051;53.024;8.630;2023-04-03T19:41:48;10.50;51.30
17938;DHT22;16051;53.024;8.630;2023-04-03T19:45:58;10.40;51.30
17938;DHT22;16051;53.024;8.630;2023-04-03T19:50:00;10.30;51.80
17938;DHT22;16051;53.024;8.630;2023-04-03T19:54:03;10.20;51.90
17938;DHT22;16051;53.024;8.630;2023-04-03T19:58:05;10.00;51.90
17938;DHT22;16051;53.024;8.630;2023-04-03T20:02:09;9.90;52.80
17938;DHT22;16051;53.024;8.630;2023-04-03T20:06:14;9.80;53.00
17938;DHT22;16051;53.024;8.630;2023-04-03T20:10:23;9.80;53.10
17938;DHT22;16051;53.024;8.630;2023-04-03T20:14:26;9.60;53.20
17938;DHT22;16051;53.024;8.630;2023-04-03T20:18:29;9.60;53.50
17938;DHT22;16051;53.024;8.630;2023-04-03T20:22:33;9.40;53.50
17938;DHT22;16051;53.024;8.630;2023-04-03T20:26:37;9.30;53.50
17938;DHT22;16051;53.024;8.630;2023-04-03T20:30:46;9.20;53.70
17938;DHT22;16051;53.024;8.630;2023-04-03T20:34:52;9.20;53.70
17938;DHT22;16051;53.024;8.630;2023-04-03T20:38:54;9.10;53.80
17938;DHT22;16051;53.024;8.630;2023-04-03T20:42:57;9.00;53.90
17938;DHT22;16051;53.024;8.630;2023-04-03T20:47:17;8.90;54.70
17938;DHT22;16051;53.024;8.630;2023-04-03T20:51:21;8.80;54.10
17938;DHT22;16051;53.024;8.630;2023-04-03T20:55:23;8.70;54.20
17938;DHT22;16051;53.024;8.630;2023-04-03T20:59:26;8.70;54.40
17938;DHT22;16051;53.024;8.630;2023-04-03T21:03:28;8.60;54.50
17938;DHT22;16051;53.024;8.630;2023-04-03T21:22:31;8.10;55.30
17938;DHT22;16051;53.024;8.630;2023-04-03T21:26:33;8.10;55.40
17938;DHT22;16051;53.024;8.630;2023-04-03T21:30:35;8.00;55.60
17938;DHT22;16051;53.024;8.630;2023-04-03T21:34:52;7.90;56.00
17938;DHT22;16051;53.024;8.630;2023-04-03T21:38:55;7.80;56.20
17938;DHT22;16051;53.024;8.630;2023-04-03T21:42:58;7.70;56.40
17938;DHT22;16051;53.024;8.630;2023-04-03T21:47:00;7.60;56.60
17938;DHT22;16051;53.024;8.630;2023-04-03T21:51:04;7.60;56.90
17938;DHT22;16051;53.024;8.630;2023-04-03T21:55:08;7.50;56.90
17938;DHT22;16051;53.024;8.630;2023-04-03T21:59:10;7.40;57.20
17938;DHT22;16051;53.024;8.630;2023-04-03T22:03:17;7.40;57.40
17938;DHT22;16051;53.024;8.630;2023-04-03T22:07:23;7.30;57.50
17938;DHT22;16051;53.024;8.630;2023-04-03T22:11:25;7.20;57.70
17938;DHT22;16051;53.024;8.630;2023-04-03T22:15:28;7.10;58.00
17938;DHT22;16051;53.024;8.630;2023-04-03T22:19:31;7.10;58.20
17938;DHT22;16051;53.024;8.630;2023-04-03T22:23:35;7.00;58.20
17938;DHT22;16051;53.024;8.630;2023-04-03T22:27:37;7.00;58.60
17938;DHT22;16051;53.024;8.630;2023-04-03T22:32:13;6.90;59.40
17938;DHT22;16051;53.024;8.630;2023-04-03T22:36:15;6.80;59.10
17938;DHT22;16051;53.024;8.630;2023-04-03T22:40:19;6.80;59.40
17938;DHT22;16051;53.024;8.630;2023-04-03T22:44:28;6.70;59.70
17938;DHT22;16051;53.024;8.630;2023-04-03T22:48:31;6.60;60.80
17938;DHT22;16051;53.024;8.630;2023-04-03T22:52:33;6.50;61.30
17938;DHT22;16051;53.024;8.630;2023-04-03T22:56:36;6.40;60.80
17938;DHT22;16051;53.024;8.630;2023-04-03T23:00:48;6.30;61.20
17938;DHT22;16051;53.024;8.630;2023-04-03T23:04:50;6.30;61.60
17938;DHT22;16051;53.024;8.630;2023-04-03T23:08:53;6.20;62.00
17938;DHT22;16051;53.024;8.630;2023-04-03T23:12:56;6.10;62.30
17938;DHT22;16051;53.024;8.630;2023-04-03T23:16:58;6.10;62.80
17938;DHT22;16051;53.024;8.630;2023-04-03T23:21:05;6.10;63.00
17938;DHT22;16051;53.024;8.630;2023-04-03T23:25:08;5.90;63.30
17938;DHT22;16051;53.024;8.630;2023-04-03T23:29:11;5.80;63.70
17938;DHT22;16051;53.024;8.630;2023-04-03T23:33:37;5.70;64.20
17938;DHT22;16051;53.024;8.630;2023-04-03T23:37:43;5.60;64.60
17938;DHT22;16051;53.024;8.630;2023-04-03T23:42:19;5.60;65.00
17938;DHT22;16051;53.024;8.630;2023-04-03T23:46:22;5.50;65.50
17938;DHT22;16051;53.024;8.630;2023-04-03T23:50:24;5.40;66.00
17938;DHT22;16051;53.024;8.630;2023-04-03T23:54:27;5.30;66.30
17938;DHT22;16051;53.024;8.630;2023-04-03T23:58:37;5.30;66.70
